createdAt,value
2017-06-18T00:00:03.758Z,931.76
2017-06-18T00:00:31.839Z,931.73
2017-06-18T00:00:59.777Z,931.8
2017-06-18T00:01:27.868Z,931.81
2017-06-18T00:01:56.060Z,931.8
2017-06-18T00:02:24.232Z,931.78
2017-06-18T00:02:52.113Z,931.79
2017-06-18T00:03:20.122Z,931.81
2017-06-18T00:03:48.216Z,931.78
2017-06-18T00:04:16.519Z,931.77
2017-06-18T00:04:44.796Z,931.77
2017-06-18T00:05:12.996Z,931.81
2017-06-18T00:05:41.242Z,931.83
2017-06-18T00:06:09.388Z,931.79
2017-06-18T00:06:37.521Z,931.79
2017-06-18T00:07:05.775Z,931.8
2017-06-18T00:07:33.923Z,931.82
2017-06-18T00:08:02.100Z,931.8
2017-06-18T00:08:30.171Z,931.8
2017-06-18T00:08:58.375Z,931.79
2017-06-18T00:09:26.649Z,931.78
2017-06-18T00:09:54.901Z,931.81
2017-06-18T00:10:22.905Z,931.79
2017-06-18T00:10:50.972Z,931.83
2017-06-18T00:11:19.080Z,931.81
2017-06-18T00:11:47.297Z,931.82
2017-06-18T00:12:15.365Z,931.82
2017-06-18T00:12:43.568Z,931.79
2017-06-18T00:13:11.855Z,931.81
2017-06-18T00:13:39.955Z,931.8
2017-06-18T00:14:08.263Z,931.81
2017-06-18T00:14:36.419Z,931.82
2017-06-18T00:15:04.547Z,931.83
2017-06-18T00:15:32.809Z,931.8
2017-06-18T00:16:00.925Z,931.83
2017-06-18T00:16:29.021Z,931.82
2017-06-18T00:16:57.015Z,931.84
2017-06-18T00:17:25.084Z,931.8
2017-06-18T00:17:53.198Z,931.77
2017-06-18T00:18:21.355Z,931.79
2017-06-18T00:18:49.559Z,931.81
2017-06-18T00:19:17.939Z,931.76
2017-06-18T00:19:46.149Z,931.81
2017-06-18T00:20:14.252Z,931.83
2017-06-18T00:20:42.503Z,931.83
2017-06-18T00:21:10.541Z,931.84
2017-06-18T00:21:38.576Z,931.83
2017-06-18T00:22:06.759Z,931.81
2017-06-18T00:22:34.887Z,931.8
2017-06-18T00:23:03.129Z,931.82
2017-06-18T00:23:31.309Z,931.85
2017-06-18T00:23:59.323Z,931.84
2017-06-18T00:24:27.466Z,931.81
2017-06-18T00:24:55.582Z,931.83
2017-06-18T00:25:23.704Z,931.84
2017-06-18T00:25:51.729Z,931.85
2017-06-18T00:26:19.929Z,931.83
2017-06-18T00:26:48.150Z,931.85
2017-06-18T00:27:16.355Z,931.83
2017-06-18T00:27:44.588Z,931.86
2017-06-18T00:28:12.583Z,931.84
2017-06-18T00:28:40.607Z,931.84
2017-06-18T00:29:08.812Z,931.87
2017-06-18T00:29:37.160Z,931.85
2017-06-18T00:30:05.224Z,931.86
2017-06-18T00:30:33.461Z,931.8
2017-06-18T00:31:01.615Z,931.81
2017-06-18T00:31:29.648Z,931.83
2017-06-18T00:31:57.883Z,931.82
2017-06-18T00:32:26.089Z,931.8
2017-06-18T00:32:54.314Z,931.81
2017-06-18T00:33:22.439Z,931.8
2017-06-18T00:33:50.533Z,931.79
2017-06-18T00:34:18.921Z,931.78
2017-06-18T00:34:47.052Z,931.76
2017-06-18T00:35:15.046Z,931.76
2017-06-18T00:35:43.184Z,931.77
2017-06-18T00:36:11.211Z,931.76
2017-06-18T00:36:39.403Z,931.77
2017-06-18T00:37:07.623Z,931.76
2017-06-18T00:37:35.697Z,931.78
2017-06-18T00:38:03.699Z,931.76
2017-06-18T00:38:31.937Z,931.76
2017-06-18T00:39:00.040Z,931.75
2017-06-18T00:39:28.209Z,931.73
2017-06-18T00:39:56.158Z,931.73
2017-06-18T00:40:24.357Z,931.77
2017-06-18T00:40:52.512Z,931.75
2017-06-18T00:41:20.504Z,931.74
2017-06-18T00:41:48.722Z,931.73
2017-06-18T00:42:16.920Z,931.77
2017-06-18T00:42:45.146Z,931.77
2017-06-18T00:43:13.160Z,931.74
2017-06-18T00:43:41.348Z,931.76
2017-06-18T00:44:09.535Z,931.78
2017-06-18T00:44:37.931Z,931.75
2017-06-18T00:45:06.105Z,931.75
2017-06-18T00:45:34.196Z,931.76
2017-06-18T00:46:02.323Z,931.79
2017-06-18T00:46:30.407Z,931.77
2017-06-18T00:46:58.559Z,931.79
2017-06-18T00:47:26.755Z,931.8
2017-06-18T00:47:54.853Z,931.71
2017-06-18T00:48:22.980Z,931.71
2017-06-18T00:48:51.179Z,931.71
2017-06-18T00:49:19.370Z,931.75
2017-06-18T00:49:47.675Z,931.73
2017-06-18T00:50:15.837Z,931.72
2017-06-18T00:50:43.989Z,931.7
2017-06-18T00:51:12.185Z,931.72
2017-06-18T00:51:40.300Z,931.7
2017-06-18T00:52:08.481Z,931.68
2017-06-18T00:52:36.720Z,931.71
2017-06-18T00:53:04.793Z,931.67
2017-06-18T00:53:33.046Z,931.67
2017-06-18T00:54:01.268Z,931.67
2017-06-18T00:54:29.395Z,931.7
2017-06-18T00:54:57.728Z,931.68
2017-06-18T00:55:25.848Z,931.69
2017-06-18T00:55:53.878Z,931.7
2017-06-18T00:56:21.847Z,931.68
2017-06-18T00:56:49.962Z,931.65
2017-06-18T00:57:18.091Z,931.68
2017-06-18T00:57:46.220Z,931.67
2017-06-18T00:58:14.452Z,931.66
2017-06-18T00:58:42.646Z,931.7
2017-06-18T00:59:10.832Z,931.7
2017-06-18T00:59:38.988Z,931.67
2017-06-18T01:00:07.225Z,931.69
2017-06-18T01:00:35.352Z,931.64
2017-06-18T01:01:03.487Z,931.65
2017-06-18T01:01:31.500Z,931.67
2017-06-18T01:01:59.700Z,931.69
2017-06-18T01:02:27.876Z,931.67
2017-06-18T01:02:55.985Z,931.67
2017-06-18T01:03:24.140Z,931.68
2017-06-18T01:03:52.170Z,931.68
2017-06-18T01:04:20.171Z,931.68
2017-06-18T01:04:48.193Z,931.69
2017-06-18T01:05:16.346Z,931.65
2017-06-18T01:05:44.391Z,931.64
2017-06-18T01:06:12.398Z,931.64
2017-06-18T01:06:40.606Z,931.64
2017-06-18T01:07:08.809Z,931.63
2017-06-18T01:07:36.988Z,931.64
2017-06-18T01:08:05.054Z,931.65
2017-06-18T01:08:33.089Z,931.64
2017-06-18T01:09:01.277Z,931.68
2017-06-18T01:09:29.467Z,931.65
2017-06-18T01:09:57.668Z,931.66
2017-06-18T01:10:25.888Z,931.62
2017-06-18T01:10:54.118Z,931.67
2017-06-18T01:11:22.229Z,931.62
2017-06-18T01:11:50.464Z,931.65
2017-06-18T01:12:18.657Z,931.65
2017-06-18T01:12:46.844Z,931.68
2017-06-18T01:13:15.027Z,931.66
2017-06-18T01:13:43.148Z,931.66
2017-06-18T01:14:11.372Z,931.66
2017-06-18T01:14:39.592Z,931.67
2017-06-18T01:15:07.879Z,931.67
2017-06-18T01:15:36.129Z,931.65
2017-06-18T01:16:04.222Z,931.67
2017-06-18T01:16:32.342Z,931.69
2017-06-18T01:17:00.544Z,931.68
2017-06-18T01:17:28.659Z,931.67
2017-06-18T01:17:56.657Z,931.64
2017-06-18T01:18:24.856Z,931.66
2017-06-18T01:18:53.090Z,931.64
2017-06-18T01:19:21.114Z,931.67
2017-06-18T01:19:49.243Z,931.65
2017-06-18T01:20:17.516Z,931.63
2017-06-18T01:20:45.737Z,931.62
2017-06-18T01:21:13.976Z,931.61
2017-06-18T01:21:42.065Z,931.6
2017-06-18T01:22:10.230Z,931.63
2017-06-18T01:22:38.464Z,931.6
2017-06-18T01:23:06.689Z,931.61
2017-06-18T01:23:34.904Z,931.6
2017-06-18T01:24:03.140Z,931.58
2017-06-18T01:24:31.265Z,931.6
2017-06-18T01:24:59.345Z,931.63
2017-06-18T01:25:27.502Z,931.58
2017-06-18T01:25:55.728Z,931.59
2017-06-18T01:26:23.860Z,931.62
2017-06-18T01:26:51.967Z,931.56
2017-06-18T01:27:20.068Z,931.61
2017-06-18T01:27:48.295Z,931.57
2017-06-18T01:28:16.151Z,931.6
2017-06-18T01:28:44.375Z,931.6
2017-06-18T01:29:12.420Z,931.61
2017-06-18T01:29:40.459Z,931.59
2017-06-18T01:30:08.745Z,931.62
2017-06-18T01:30:36.882Z,931.56
2017-06-18T01:31:05.130Z,931.55
2017-06-18T01:31:33.262Z,931.56
2017-06-18T01:32:01.389Z,931.56
2017-06-18T01:32:29.385Z,931.56
2017-06-18T01:32:57.621Z,931.57
2017-06-18T01:33:25.759Z,931.58
2017-06-18T01:33:53.952Z,931.57
2017-06-18T01:34:22.098Z,931.58
2017-06-18T01:34:50.237Z,931.5
2017-06-18T01:35:18.632Z,931.53
2017-06-18T01:35:46.848Z,931.53
2017-06-18T01:36:14.943Z,931.54
2017-06-18T01:36:43.061Z,931.51
2017-06-18T01:37:11.261Z,931.52
2017-06-18T01:37:39.383Z,931.55
2017-06-18T01:38:07.449Z,931.56
2017-06-18T01:38:35.518Z,931.59
2017-06-18T01:39:03.725Z,931.58
2017-06-18T01:39:31.916Z,931.57
2017-06-18T01:40:00.022Z,931.58
2017-06-18T01:40:28.269Z,931.6
2017-06-18T01:40:56.486Z,931.59
2017-06-18T01:41:24.768Z,931.58
2017-06-18T01:41:52.763Z,931.59
2017-06-18T01:42:20.827Z,931.6
2017-06-18T01:42:48.965Z,931.57
2017-06-18T01:43:17.125Z,931.61
2017-06-18T01:43:45.273Z,931.56
2017-06-18T01:44:13.402Z,931.58
2017-06-18T01:44:41.549Z,931.57
2017-06-18T01:45:09.568Z,931.55
2017-06-18T01:45:37.933Z,931.55
2017-06-18T01:46:05.996Z,931.56
2017-06-18T01:46:34.000Z,931.56
2017-06-18T01:47:02.199Z,931.61
2017-06-18T01:47:30.200Z,931.56
2017-06-18T01:47:58.231Z,931.57
2017-06-18T01:48:26.336Z,931.6
2017-06-18T01:48:54.566Z,931.6
2017-06-18T01:49:22.784Z,931.61
2017-06-18T01:49:50.982Z,931.62
2017-06-18T01:50:19.339Z,931.64
2017-06-18T01:50:47.574Z,931.63
2017-06-18T01:51:15.646Z,931.59
2017-06-18T01:51:43.864Z,931.6
2017-06-18T01:52:11.809Z,931.61
2017-06-18T01:52:39.916Z,931.62
2017-06-18T01:53:08.138Z,931.6
2017-06-18T01:53:36.297Z,931.61
2017-06-18T01:54:04.451Z,931.64
2017-06-18T01:54:32.553Z,931.64
2017-06-18T01:55:00.696Z,931.65
2017-06-18T01:55:28.944Z,931.65
2017-06-18T01:55:56.888Z,931.63
2017-06-18T01:56:25.102Z,931.64
2017-06-18T01:56:53.209Z,931.67
2017-06-18T01:57:21.437Z,931.64
2017-06-18T01:57:49.643Z,931.67
2017-06-18T01:58:17.862Z,931.67
2017-06-18T01:58:45.945Z,931.64
2017-06-18T01:59:13.943Z,931.68
2017-06-18T01:59:42.138Z,931.65
2017-06-18T02:00:10.265Z,931.7
2017-06-18T02:00:38.668Z,931.66
2017-06-18T02:01:06.888Z,931.7
2017-06-18T02:01:35.076Z,931.68
2017-06-18T02:02:03.325Z,931.67
2017-06-18T02:02:31.400Z,931.7
2017-06-18T02:02:59.567Z,931.7
2017-06-18T02:03:27.786Z,931.69
2017-06-18T02:03:56.023Z,931.69
2017-06-18T02:04:24.261Z,931.65
2017-06-18T02:04:52.368Z,931.66
2017-06-18T02:05:20.421Z,931.7
2017-06-18T02:05:48.808Z,931.69
2017-06-18T02:06:16.909Z,931.68
2017-06-18T02:06:45.084Z,931.66
2017-06-18T02:07:13.194Z,931.66
2017-06-18T02:07:41.439Z,931.69
2017-06-18T02:08:09.675Z,931.66
2017-06-18T02:08:37.921Z,931.65
2017-06-18T02:09:06.171Z,931.69
2017-06-18T02:09:34.286Z,931.69
2017-06-18T02:10:02.490Z,931.7
2017-06-18T02:10:30.648Z,931.71
2017-06-18T02:10:58.825Z,931.68
2017-06-18T02:11:26.918Z,931.67
2017-06-18T02:11:55.011Z,931.67
2017-06-18T02:12:23.219Z,931.67
2017-06-18T02:12:51.380Z,931.66
2017-06-18T02:13:19.503Z,931.66
2017-06-18T02:13:47.678Z,931.67
2017-06-18T02:14:15.879Z,931.66
2017-06-18T02:14:44.117Z,931.65
2017-06-18T02:15:12.397Z,931.67
2017-06-18T02:15:40.814Z,931.67
2017-06-18T02:16:08.956Z,931.69
2017-06-18T02:16:37.799Z,931.7
2017-06-18T02:17:06.154Z,931.67
2017-06-18T02:17:34.376Z,931.67
2017-06-18T02:18:02.606Z,931.72
2017-06-18T02:18:30.673Z,931.68
2017-06-18T02:18:58.961Z,931.68
2017-06-18T02:19:27.212Z,931.7
2017-06-18T02:19:55.434Z,931.68
2017-06-18T02:20:23.729Z,931.72
2017-06-18T02:20:52.075Z,931.71
2017-06-18T02:21:20.248Z,931.72
2017-06-18T02:21:48.367Z,931.71
2017-06-18T02:22:16.423Z,931.67
2017-06-18T02:22:44.655Z,931.71
2017-06-18T02:23:12.946Z,931.73
2017-06-18T02:23:40.955Z,931.69
2017-06-18T02:24:08.955Z,931.69
2017-06-18T02:24:37.053Z,931.69
2017-06-18T02:25:05.077Z,931.69
2017-06-18T02:25:33.189Z,931.69
2017-06-18T02:26:01.428Z,931.7
2017-06-18T02:26:29.635Z,931.68
2017-06-18T02:26:57.846Z,931.68
2017-06-18T02:27:26.045Z,931.69
2017-06-18T02:27:54.294Z,931.72
2017-06-18T02:28:22.483Z,931.69
2017-06-18T02:28:50.490Z,931.68
2017-06-18T02:29:18.629Z,931.72
2017-06-18T02:29:46.734Z,931.7
2017-06-18T02:30:14.737Z,931.71
2017-06-18T02:30:42.752Z,931.69
2017-06-18T02:31:11.047Z,931.66
2017-06-18T02:31:39.164Z,931.71
2017-06-18T02:32:07.306Z,931.71
2017-06-18T02:32:35.456Z,931.65
2017-06-18T02:33:03.522Z,931.66
2017-06-18T02:33:31.736Z,931.66
2017-06-18T02:33:59.891Z,931.68
2017-06-18T02:34:28.011Z,931.71
2017-06-18T02:34:56.231Z,931.69
2017-06-18T02:35:24.431Z,931.7
2017-06-18T02:35:52.541Z,931.67
2017-06-18T02:36:20.842Z,931.69
2017-06-18T02:36:48.925Z,931.68
2017-06-18T02:37:17.133Z,931.68
2017-06-18T02:37:45.032Z,931.66
2017-06-18T02:38:13.169Z,931.67
2017-06-18T02:38:41.363Z,931.68
2017-06-18T02:39:09.519Z,931.68
2017-06-18T02:39:37.536Z,931.69
2017-06-18T02:40:05.551Z,931.72
2017-06-18T02:40:33.656Z,931.63
2017-06-18T02:41:01.921Z,931.69
2017-06-18T02:41:30.148Z,931.68
2017-06-18T02:41:58.337Z,931.71
2017-06-18T02:42:26.527Z,931.72
2017-06-18T02:42:54.458Z,931.67
2017-06-18T02:43:22.594Z,931.71
2017-06-18T02:43:50.724Z,931.69
2017-06-18T02:44:18.923Z,931.64
2017-06-18T02:44:47.008Z,931.68
2017-06-18T02:45:15.135Z,931.65
2017-06-18T02:45:43.149Z,931.67
2017-06-18T02:46:11.421Z,931.65
2017-06-18T02:46:39.557Z,931.64
2017-06-18T02:47:07.670Z,931.65
2017-06-18T02:47:35.878Z,931.62
2017-06-18T02:48:03.918Z,931.65
2017-06-18T02:48:32.015Z,931.65
2017-06-18T02:49:00.145Z,931.62
2017-06-18T02:49:28.383Z,931.63
2017-06-18T02:49:56.430Z,931.64
2017-06-18T02:50:24.667Z,931.62
2017-06-18T02:50:52.896Z,931.61
2017-06-18T02:51:21.247Z,931.63
2017-06-18T02:51:49.444Z,931.62
2017-06-18T02:52:17.370Z,931.61
2017-06-18T02:52:45.464Z,931.6
2017-06-18T02:53:13.316Z,931.59
2017-06-18T02:53:41.431Z,931.62
2017-06-18T02:54:09.682Z,931.62
2017-06-18T02:54:37.693Z,931.58
2017-06-18T02:55:05.819Z,931.62
2017-06-18T02:55:33.933Z,931.61
2017-06-18T02:56:02.020Z,931.61
2017-06-18T02:56:30.374Z,931.59
2017-06-18T02:56:58.530Z,931.61
2017-06-18T02:57:26.745Z,931.62
2017-06-18T02:57:54.971Z,931.59
2017-06-18T02:58:23.182Z,931.57
2017-06-18T02:58:51.316Z,931.6
2017-06-18T02:59:19.588Z,931.53
2017-06-18T02:59:47.716Z,931.57
2017-06-18T03:00:15.883Z,931.6
2017-06-18T03:00:44.155Z,931.59
2017-06-18T03:01:12.258Z,931.58
2017-06-18T03:01:40.624Z,931.59
2017-06-18T03:02:08.747Z,931.57
2017-06-18T03:02:36.603Z,931.57
2017-06-18T03:03:04.717Z,931.55
2017-06-18T03:03:32.818Z,931.56
2017-06-18T03:04:00.877Z,931.56
2017-06-18T03:04:29.011Z,931.57
2017-06-18T03:04:56.987Z,931.56
2017-06-18T03:05:25.259Z,931.59
2017-06-18T03:05:53.475Z,931.56
2017-06-18T03:06:21.662Z,931.56
2017-06-18T03:06:49.718Z,931.55
2017-06-18T03:07:17.732Z,931.54
2017-06-18T03:07:45.877Z,931.54
2017-06-18T03:08:13.874Z,931.58
2017-06-18T03:08:42.118Z,931.61
2017-06-18T03:09:10.190Z,931.6
2017-06-18T03:09:38.436Z,931.58
2017-06-18T03:10:06.616Z,931.58
2017-06-18T03:10:34.789Z,931.58
2017-06-18T03:11:02.934Z,931.58
2017-06-18T03:11:31.205Z,931.6
2017-06-18T03:11:59.425Z,931.59
2017-06-18T03:12:27.541Z,931.62
2017-06-18T03:12:55.674Z,931.62
2017-06-18T03:13:23.897Z,931.59
2017-06-18T03:13:52.011Z,931.61
2017-06-18T03:14:20.255Z,931.57
2017-06-18T03:14:48.478Z,931.59
2017-06-18T03:15:16.681Z,931.6
2017-06-18T03:15:44.802Z,931.61
2017-06-18T03:16:12.976Z,931.62
2017-06-18T03:16:41.329Z,931.58
2017-06-18T03:17:09.339Z,931.61
2017-06-18T03:17:37.515Z,931.59
2017-06-18T03:18:05.737Z,931.61
2017-06-18T03:18:33.768Z,931.61
2017-06-18T03:19:01.776Z,931.63
2017-06-18T03:19:29.739Z,931.65
2017-06-18T03:19:57.934Z,931.65
2017-06-18T03:20:26.095Z,931.62
2017-06-18T03:20:54.073Z,931.64
2017-06-18T03:21:22.313Z,931.63
2017-06-18T03:21:50.712Z,931.65
2017-06-18T03:22:18.964Z,931.63
2017-06-18T03:22:46.992Z,931.62
2017-06-18T03:23:15.193Z,931.62
2017-06-18T03:23:43.102Z,931.64
2017-06-18T03:24:11.270Z,931.67
2017-06-18T03:24:39.492Z,931.59
2017-06-18T03:25:07.675Z,931.6
2017-06-18T03:25:35.902Z,931.63
2017-06-18T03:26:04.107Z,931.61
2017-06-18T03:26:32.234Z,931.62
2017-06-18T03:27:00.461Z,931.61
2017-06-18T03:27:28.607Z,931.64
2017-06-18T03:27:56.759Z,931.6
2017-06-18T03:28:24.790Z,931.63
2017-06-18T03:28:52.716Z,931.63
2017-06-18T03:29:20.949Z,931.65
2017-06-18T03:29:49.172Z,931.65
2017-06-18T03:30:17.369Z,931.68
2017-06-18T03:30:45.494Z,931.63
2017-06-18T03:31:13.689Z,931.64
2017-06-18T03:31:42.072Z,931.66
2017-06-18T03:32:10.071Z,931.57
2017-06-18T03:32:38.288Z,931.61
2017-06-18T03:33:06.429Z,931.58
2017-06-18T03:33:34.459Z,931.6
2017-06-18T03:34:02.685Z,931.6
2017-06-18T03:34:30.585Z,931.6
2017-06-18T03:34:58.609Z,931.61
2017-06-18T03:35:26.715Z,931.59
2017-06-18T03:35:54.898Z,931.62
2017-06-18T03:36:22.926Z,931.63
2017-06-18T03:36:51.259Z,931.6
2017-06-18T03:37:19.461Z,931.61
2017-06-18T03:37:47.486Z,931.6
2017-06-18T03:38:15.686Z,931.62
2017-06-18T03:38:43.835Z,931.65
2017-06-18T03:39:11.996Z,931.6
2017-06-18T03:39:40.243Z,931.59
2017-06-18T03:40:08.200Z,931.61
2017-06-18T03:40:36.397Z,931.61
2017-06-18T03:41:04.612Z,931.6
2017-06-18T03:41:32.787Z,931.61
2017-06-18T03:42:00.938Z,931.61
2017-06-18T03:42:29.160Z,931.59
2017-06-18T03:42:57.237Z,931.6
2017-06-18T03:43:25.407Z,931.56
2017-06-18T03:43:53.432Z,931.62
2017-06-18T03:44:21.662Z,931.62
2017-06-18T03:44:49.767Z,931.63
2017-06-18T03:45:17.801Z,931.59
2017-06-18T03:45:45.828Z,931.61
2017-06-18T03:46:13.957Z,931.63
2017-06-18T03:46:42.340Z,931.65
2017-06-18T03:47:10.459Z,931.63
2017-06-18T03:47:38.664Z,931.61
2017-06-18T03:48:06.902Z,931.64
2017-06-18T03:48:35.044Z,931.63
2017-06-18T03:49:03.261Z,931.6
2017-06-18T03:49:31.487Z,931.6
2017-06-18T03:49:59.700Z,931.6
2017-06-18T03:50:27.900Z,931.6
2017-06-18T03:50:55.976Z,931.63
2017-06-18T03:51:24.192Z,931.64
2017-06-18T03:51:52.590Z,931.63
2017-06-18T03:52:20.826Z,931.65
2017-06-18T03:52:48.932Z,931.66
2017-06-18T03:53:17.065Z,931.63
2017-06-18T03:53:45.176Z,931.65
2017-06-18T03:54:13.305Z,931.63
2017-06-18T03:54:41.418Z,931.65
2017-06-18T03:55:09.557Z,931.66
2017-06-18T03:55:37.733Z,931.65
2017-06-18T03:56:05.935Z,931.64
2017-06-18T03:56:34.150Z,931.65
2017-06-18T03:57:02.452Z,931.62
2017-06-18T03:57:30.685Z,931.65
2017-06-18T03:57:58.811Z,931.62
2017-06-18T03:58:26.937Z,931.64
2017-06-18T03:58:55.141Z,931.6
2017-06-18T03:59:23.246Z,931.64
2017-06-18T03:59:51.397Z,931.62
2017-06-18T04:00:19.597Z,931.65
2017-06-18T04:00:47.772Z,931.62
2017-06-18T04:01:15.987Z,931.61
2017-06-18T04:01:44.150Z,931.64
2017-06-18T04:02:12.437Z,931.64
2017-06-18T04:02:40.435Z,931.64
2017-06-18T04:03:08.573Z,931.63
2017-06-18T04:03:36.700Z,931.64
2017-06-18T04:04:04.913Z,931.63
2017-06-18T04:04:33.137Z,931.65
2017-06-18T04:05:01.359Z,931.65
2017-06-18T04:05:29.377Z,931.66
2017-06-18T04:05:57.581Z,931.7
2017-06-18T04:06:25.568Z,931.68
2017-06-18T04:06:53.696Z,931.66
2017-06-18T04:07:21.897Z,931.66
2017-06-18T04:07:50.023Z,931.67
2017-06-18T04:08:18.102Z,931.66
2017-06-18T04:08:46.236Z,931.67
2017-06-18T04:09:14.329Z,931.7
2017-06-18T04:09:42.469Z,931.67
2017-06-18T04:10:10.507Z,931.67
2017-06-18T04:10:38.722Z,931.68
2017-06-18T04:11:06.805Z,931.67
2017-06-18T04:11:35.015Z,931.66
2017-06-18T04:12:03.209Z,931.64
2017-06-18T04:12:31.422Z,931.66
2017-06-18T04:12:59.522Z,931.66
2017-06-18T04:13:27.675Z,931.65
2017-06-18T04:13:55.873Z,931.63
2017-06-18T04:14:24.045Z,931.68
2017-06-18T04:14:52.261Z,931.66
2017-06-18T04:15:20.473Z,931.64
2017-06-18T04:15:48.578Z,931.66
2017-06-18T04:16:16.680Z,931.68
2017-06-18T04:16:44.789Z,931.67
2017-06-18T04:17:13.045Z,931.68
2017-06-18T04:17:41.298Z,931.66
2017-06-18T04:18:09.430Z,931.65
2017-06-18T04:18:37.539Z,931.67
2017-06-18T04:19:05.543Z,931.69
2017-06-18T04:19:33.644Z,931.67
2017-06-18T04:20:01.860Z,931.66
2017-06-18T04:20:29.965Z,931.63
2017-06-18T04:20:58.155Z,931.66
2017-06-18T04:21:26.198Z,931.65
2017-06-18T04:21:54.368Z,931.64
2017-06-18T04:22:22.653Z,931.63
2017-06-18T04:22:50.836Z,931.62
2017-06-18T04:23:19.018Z,931.62
2017-06-18T04:23:47.169Z,931.61
2017-06-18T04:24:15.398Z,931.61
2017-06-18T04:24:43.508Z,931.6
2017-06-18T04:25:11.644Z,931.6
2017-06-18T04:25:39.859Z,931.64
2017-06-18T04:26:07.998Z,931.62
2017-06-18T04:26:36.216Z,931.64
2017-06-18T04:27:04.382Z,931.65
2017-06-18T04:27:32.596Z,931.69
2017-06-18T04:28:00.703Z,931.66
2017-06-18T04:28:28.846Z,931.66
2017-06-18T04:28:56.870Z,931.66
2017-06-18T04:29:25.026Z,931.65
2017-06-18T04:29:53.051Z,931.66
2017-06-18T04:30:21.282Z,931.63
2017-06-18T04:30:49.492Z,931.64
2017-06-18T04:31:17.622Z,931.62
2017-06-18T04:31:45.824Z,931.61
2017-06-18T04:32:14.034Z,931.63
2017-06-18T04:32:42.137Z,931.61
2017-06-18T04:33:10.261Z,931.59
2017-06-18T04:33:38.332Z,931.61
2017-06-18T04:34:06.549Z,931.62
2017-06-18T04:34:34.654Z,931.6
2017-06-18T04:35:02.835Z,931.62
2017-06-18T04:35:30.923Z,931.59
2017-06-18T04:35:59.053Z,931.59
2017-06-18T04:36:27.224Z,931.61
2017-06-18T04:36:55.346Z,931.63
2017-06-18T04:37:23.630Z,931.58
2017-06-18T04:37:51.726Z,931.58
2017-06-18T04:38:19.850Z,931.6
2017-06-18T04:38:47.989Z,931.58
2017-06-18T04:39:16.116Z,931.55
2017-06-18T04:39:44.336Z,931.57
2017-06-18T04:40:12.517Z,931.55
2017-06-18T04:40:40.628Z,931.55
2017-06-18T04:41:08.747Z,931.56
2017-06-18T04:41:37.005Z,931.54
2017-06-18T04:42:05.199Z,931.56
2017-06-18T04:42:33.475Z,931.59
2017-06-18T04:43:01.622Z,931.58
2017-06-18T04:43:29.739Z,931.55
2017-06-18T04:43:57.851Z,931.6
2017-06-18T04:44:26.027Z,931.58
2017-06-18T04:44:54.149Z,931.56
2017-06-18T04:45:22.149Z,931.54
2017-06-18T04:45:50.217Z,931.59
2017-06-18T04:46:18.369Z,931.61
2017-06-18T04:46:46.627Z,931.6
2017-06-18T04:47:14.852Z,931.57
2017-06-18T04:47:43.014Z,931.6
2017-06-18T04:48:11.161Z,931.6
2017-06-18T04:48:39.208Z,931.6
2017-06-18T04:49:07.383Z,931.6
2017-06-18T04:49:35.499Z,931.58
2017-06-18T04:50:03.668Z,931.6
2017-06-18T04:50:31.726Z,931.55
2017-06-18T04:50:59.746Z,931.55
2017-06-18T04:51:27.854Z,931.57
2017-06-18T04:51:56.044Z,931.56
2017-06-18T04:52:24.197Z,931.57
2017-06-18T04:52:52.554Z,931.52
2017-06-18T04:53:20.693Z,931.55
2017-06-18T04:53:48.813Z,931.53
2017-06-18T04:54:16.737Z,931.54
2017-06-18T04:54:44.790Z,931.52
2017-06-18T04:55:12.925Z,931.5
2017-06-18T04:55:40.738Z,931.51
2017-06-18T04:56:08.839Z,931.54
2017-06-18T04:56:36.853Z,931.51
2017-06-18T04:57:04.955Z,931.49
2017-06-18T04:57:33.106Z,931.51
2017-06-18T04:58:01.369Z,931.51
2017-06-18T04:58:29.425Z,931.52
2017-06-18T04:58:57.694Z,931.53
2017-06-18T04:59:25.579Z,931.53
2017-06-18T04:59:53.583Z,931.56
2017-06-18T05:00:21.712Z,931.55
2017-06-18T05:00:49.727Z,931.57
2017-06-18T05:01:17.945Z,931.54
2017-06-18T05:01:46.165Z,931.53
2017-06-18T05:02:14.279Z,931.55
2017-06-18T05:02:42.615Z,931.57
2017-06-18T05:03:10.746Z,931.57
2017-06-18T05:03:38.992Z,931.59
2017-06-18T05:04:07.020Z,931.59
2017-06-18T05:04:35.270Z,931.58
2017-06-18T05:05:03.509Z,931.58
2017-06-18T05:05:31.606Z,931.56
2017-06-18T05:05:59.697Z,931.56
2017-06-18T05:06:27.910Z,931.56
2017-06-18T05:06:56.043Z,931.56
2017-06-18T05:07:24.080Z,931.53
2017-06-18T05:07:52.514Z,931.52
2017-06-18T05:08:20.704Z,931.5
2017-06-18T05:08:48.812Z,931.49
2017-06-18T05:09:17.035Z,931.47
2017-06-18T05:09:45.250Z,931.49
2017-06-18T05:10:13.534Z,931.45
2017-06-18T05:10:41.603Z,931.44
2017-06-18T05:11:09.742Z,931.42
2017-06-18T05:11:37.761Z,931.42
2017-06-18T05:12:05.698Z,931.41
2017-06-18T05:12:33.742Z,931.41
2017-06-18T05:13:01.954Z,931.41
2017-06-18T05:13:30.172Z,931.39
2017-06-18T05:13:58.191Z,931.42
2017-06-18T05:14:26.421Z,931.36
2017-06-18T05:14:54.620Z,931.37
2017-06-18T05:15:22.783Z,931.37
2017-06-18T05:15:50.781Z,931.38
2017-06-18T05:16:18.920Z,931.39
2017-06-18T05:16:47.130Z,931.39
2017-06-18T05:17:15.244Z,931.4
2017-06-18T05:17:43.313Z,931.37
2017-06-18T05:18:11.348Z,931.35
2017-06-18T05:18:39.376Z,931.38
2017-06-18T05:19:07.641Z,931.36
2017-06-18T05:19:35.671Z,931.38
2017-06-18T05:20:03.798Z,931.35
2017-06-18T05:20:32.074Z,931.38
2017-06-18T05:21:00.279Z,931.35
2017-06-18T05:21:28.357Z,931.33
2017-06-18T05:21:56.486Z,931.35
2017-06-18T05:22:24.609Z,931.37
2017-06-18T05:22:52.565Z,931.38
2017-06-18T05:23:20.805Z,931.34
2017-06-18T05:23:48.862Z,931.35
2017-06-18T05:24:16.983Z,931.32
2017-06-18T05:24:45.115Z,931.32
2017-06-18T05:25:14.621Z,931.34
2017-06-18T05:25:46.116Z,931.34
2017-06-18T05:26:14.424Z,931.29
2017-06-18T05:26:42.529Z,931.31
2017-06-18T05:27:11.245Z,931.29
2017-06-18T05:27:39.546Z,931.31
2017-06-18T05:28:08.149Z,931.33
2017-06-18T05:28:36.381Z,931.32
2017-06-18T05:29:04.717Z,931.34
2017-06-18T05:29:33.175Z,931.33
2017-06-18T05:30:01.294Z,931.28
2017-06-18T05:30:29.920Z,931.29
2017-06-18T05:30:58.338Z,931.27
2017-06-18T05:31:26.970Z,931.28
2017-06-18T05:31:55.441Z,931.3
2017-06-18T05:32:23.562Z,931.26
2017-06-18T05:32:52.002Z,931.28
2017-06-18T05:33:20.199Z,931.25
2017-06-18T05:33:48.657Z,931.25
2017-06-18T05:34:17.292Z,931.26
2017-06-18T05:34:45.397Z,931.25
2017-06-18T05:35:13.523Z,931.27
2017-06-18T05:35:41.780Z,931.26
2017-06-18T05:36:10.811Z,931.23
2017-06-18T05:36:39.155Z,931.26
2017-06-18T05:37:07.502Z,931.24
2017-06-18T05:37:36.499Z,931.25
2017-06-18T05:38:04.703Z,931.21
2017-06-18T05:38:32.949Z,931.24
2017-06-18T05:39:01.665Z,931.26
2017-06-18T05:39:30.022Z,931.26
2017-06-18T05:39:58.230Z,931.24
2017-06-18T05:40:26.467Z,931.23
2017-06-18T05:40:55.081Z,931.26
2017-06-18T05:41:23.618Z,931.24
2017-06-18T05:41:51.682Z,931.27
2017-06-18T05:42:19.999Z,931.26
2017-06-18T05:42:48.374Z,931.28
2017-06-18T05:43:16.776Z,931.29
2017-06-18T05:43:45.277Z,931.27
2017-06-18T05:44:13.485Z,931.27
2017-06-18T05:44:42.010Z,931.27
2017-06-18T05:45:10.140Z,931.26
2017-06-18T05:45:38.594Z,931.25
2017-06-18T05:46:06.847Z,931.25
2017-06-18T05:46:35.425Z,931.22
2017-06-18T05:47:03.787Z,931.24
2017-06-18T05:47:31.866Z,931.26
2017-06-18T05:48:00.406Z,931.26
2017-06-18T05:48:29.038Z,931.27
2017-06-18T05:48:57.284Z,931.28
2017-06-18T05:49:25.422Z,931.28
2017-06-18T05:49:53.471Z,931.28
2017-06-18T05:50:21.836Z,931.29
2017-06-18T05:50:50.358Z,931.26
2017-06-18T05:51:18.508Z,931.24
2017-06-18T05:51:46.873Z,931.24
2017-06-18T05:52:15.179Z,931.21
2017-06-18T05:52:43.798Z,931.21